sensor_id;sensor_type;location;lat;lon;timestamp;temperature;humidity
59651;DHT22;45954;49.768;8.636;2022-09-25T00:00:55;14.40;99.90
59651;DHT22;45954;49.768;8.636;2022-09-25T00:03:24;14.50;99.90
59651;DHT22;45954;49.768;8.636;2022-09-25T00:05:52;14.70;99.90
59651;DHT22;45954;49.768;8.636;2022-09-25T00:08:27;14.70;99.90
59651;DHT22;45954;49.768;8.636;2022-09-25T00:10:53;14.50;99.90
59651;DHT22;45954;49.768;8.636;2022-09-25T00:13:19;14.60;99.90
59651;DHT22;45954;49.768;8.636;2022-09-25T00:15:47;14.60;99.90
59651;DHT22;45954;49.768;8.636;2022-09-25T00:18:19;14.70;99.90
59651;DHT22;45954;49.768;8.636;2022-09-25T00:21:05;14.70;99.90
59651;DHT22;45954;49.768;8.636;2022-09-25T00:23:31;14.70;99.90
59651;DHT22;45954;49.768;8.636;2022-09-25T00:25:59;14.80;99.90
59651;DHT22;45954;49.768;8.636;2022-09-25T00:28:26;14.80;99.90
59651;DHT22;45954;49.768;8.636;2022-09-25T00:30:57;14.70;99.90
59651;DHT22;45954;49.768;8.636;2022-09-25T00:33:23;14.50;99.90
59651;DHT22;45954;49.768;8.636;2022-09-25T00:35:49;14.40;99.90
59651;DHT22;45954;49.768;8.636;2022-09-25T00:38:15;14.30;99.90
59651;DHT22;45954;49.768;8.636;2022-09-25T00:40:41;14.50;99.90
59651;DHT22;45954;49.768;8.636;2022-09-25T00:43:15;14.60;99.90
59651;DHT22;45954;49.768;8.636;2022-09-25T00:46:01;14.70;99.90
59651;DHT22;45954;49.768;8.636;2022-09-25T00:48:30;14.70;99.90
59651;DHT22;45954;49.768;8.636;2022-09-25T00:50:58;14.60;99.90
59651;DHT22;45954;49.768;8.636;2022-09-25T00:53:32;14.50;99.90
59651;DHT22;45954;49.768;8.636;2022-09-25T00:56:03;14.40;99.90
59651;DHT22;45954;49.768;8.636;2022-09-25T00:58:32;14.20;99.90
59651;DHT22;45954;49.768;8.636;2022-09-25T01:00:59;14.30;99.90
59651;DHT22;45954;49.768;8.636;2022-09-25T01:03:26;14.20;99.90
59651;DHT22;45954;49.768;8.636;2022-09-25T01:05:53;14.30;99.90
59651;DHT22;45954;49.768;8.636;2022-09-25T01:08:23;14.60;99.90
59651;DHT22;45954;49.768;8.636;2022-09-25T01:10:51;14.70;99.90
59651;DHT22;45954;49.768;8.636;2022-09-25T01:13:18;14.60;99.90
59651;DHT22;45954;49.768;8.636;2022-09-25T01:21:41;14.30;99.90
59651;DHT22;45954;49.768;8.636;2022-09-25T01:24:51;14.30;99.90
59651;DHT22;45954;49.768;8.636;2022-09-25T01:27:45;14.30;99.90
59651;DHT22;45954;49.768;8.636;2022-09-25T01:30:35;14.30;99.90
59651;DHT22;45954;49.768;8.636;2022-09-25T01:33:16;14.30;99.90
59651;DHT22;45954;49.768;8.636;2022-09-25T01:35:46;14.20;99.90
59651;DHT22;45954;49.768;8.636;2022-09-25T01:38:37;14.10;99.90
59651;DHT22;45954;49.768;8.636;2022-09-25T01:41:21;14.20;99.90
59651;DHT22;45954;49.768;8.636;2022-09-25T01:44:04;14.30;99.90
59651;DHT22;45954;49.768;8.636;2022-09-25T01:46:49;14.20;99.90
59651;DHT22;45954;49.768;8.636;2022-09-25T01:49:34;14.20;99.90
59651;DHT22;45954;49.768;8.636;2022-09-25T01:52:07;14.20;99.90
59651;DHT22;45954;49.768;8.636;2022-09-25T01:54:47;14.20;99.90
59651;DHT22;45954;49.768;8.636;2022-09-25T01:57:40;14.20;99.90
59651;DHT22;45954;49.768;8.636;2022-09-25T02:00:13;14.20;99.90
59651;DHT22;45954;49.768;8.636;2022-09-25T02:02:46;14.20;99.90
59651;DHT22;45954;49.768;8.636;2022-09-25T02:05:37;14.30;99.90
59651;DHT22;45954;49.768;8.636;2022-09-25T02:08:14;14.40;99.90
59651;DHT22;45954;49.768;8.636;2022-09-25T02:10:57;14.30;99.90
59651;DHT22;45954;49.768;8.636;2022-09-25T02:16:41;14.30;99.90
59651;DHT22;45954;49.768;8.636;2022-09-25T02:19:14;14.20;99.90
59651;DHT22;45954;49.768;8.636;2022-09-25T02:22:12;14.30;99.90
59651;DHT22;45954;49.768;8.636;2022-09-25T02:24:49;14.30;99.90
59651;DHT22;45954;49.768;8.636;2022-09-25T02:27:20;14.40;99.90
59651;DHT22;45954;49.768;8.636;2022-09-25T02:29:47;14.20;99.90
59651;DHT22;45954;49.768;8.636;2022-09-25T02:32:20;13.90;99.90
59651;DHT22;45954;49.768;8.636;2022-09-25T02:34:48;14.00;99.90
59651;DHT22;45954;49.768;8.636;2022-09-25T02:37:16;14.00;99.90
59651;DHT22;45954;49.768;8.636;2022-09-25T02:39:47;14.00;99.90
59651;DHT22;45954;49.768;8.636;2022-09-25T02:42:31;14.10;99.90
59651;DHT22;45954;49.768;8.636;2022-09-25T02:45:41;14.10;99.90
59651;DHT22;45954;49.768;8.636;2022-09-25T02:48:41;14.00;99.90
59651;DHT22;45954;49.768;8.636;2022-09-25T02:54:11;14.20;99.90
59651;DHT22;45954;49.768;8.636;2022-09-25T02:59:53;14.50;99.90
59651;DHT22;45954;49.768;8.636;2022-09-25T03:02:24;14.60;99.90
59651;DHT22;45954;49.768;8.636;2022-09-25T03:04:51;14.60;99.90
59651;DHT22;45954;49.768;8.636;2022-09-25T03:07:19;14.60;99.90
59651;DHT22;45954;49.768;8.636;2022-09-25T03:09:49;14.60;99.90
59651;DHT22;45954;49.768;8.636;2022-09-25T03:12:15;14.50;99.90
59651;DHT22;45954;49.768;8.636;2022-09-25T03:14:41;14.20;99.90
59651;DHT22;45954;49.768;8.636;2022-09-25T03:17:09;13.90;99.90
59651;DHT22;45954;49.768;8.636;2022-09-25T03:19:36;13.80;99.90
59651;DHT22;45954;49.768;8.636;2022-09-25T03:22:03;13.80;99.90
59651;DHT22;45954;49.768;8.636;2022-09-25T03:24:29;14.00;99.90
59651;DHT22;45954;49.768;8.636;2022-09-25T03:26:56;14.10;99.90
59651;DHT22;45954;49.768;8.636;2022-09-25T03:29:21;14.20;99.90
59651;DHT22;45954;49.768;8.636;2022-09-25T03:31:48;14.30;99.90
59651;DHT22;45954;49.768;8.636;2022-09-25T03:34:16;14.30;99.90
59651;DHT22;45954;49.768;8.636;2022-09-25T03:36:43;14.20;99.90
59651;DHT22;45954;49.768;8.636;2022-09-25T03:39:13;14.30;99.90
59651;DHT22;45954;49.768;8.636;2022-09-25T03:41:42;14.30;99.90
59651;DHT22;45954;49.768;8.636;2022-09-25T03:44:08;14.30;99.90
59651;DHT22;45954;49.768;8.636;2022-09-25T03:46:35;14.20;99.90
59651;DHT22;45954;49.768;8.636;2022-09-25T03:49:02;14.00;99.90
59651;DHT22;45954;49.768;8.636;2022-09-25T03:51:30;14.20;99.90
59651;DHT22;45954;49.768;8.636;2022-09-25T03:53:56;14.10;99.90
59651;DHT22;45954;49.768;8.636;2022-09-25T03:56:25;14.00;99.90
59651;DHT22;45954;49.768;8.636;2022-09-25T03:58:54;13.90;99.90
59651;DHT22;45954;49.768;8.636;2022-09-25T04:01:20;14.00;99.90
59651;DHT22;45954;49.768;8.636;2022-09-25T04:03:48;14.10;99.90
59651;DHT22;45954;49.768;8.636;2022-09-25T04:06:17;14.20;99.90
59651;DHT22;45954;49.768;8.636;2022-09-25T04:08:45;14.10;99.90
59651;DHT22;45954;49.768;8.636;2022-09-25T04:11:13;14.20;99.90
59651;DHT22;45954;49.768;8.636;2022-09-25T04:13:42;14.00;99.90
59651;DHT22;45954;49.768;8.636;2022-09-25T04:16:10;14.10;99.90
59651;DHT22;45954;49.768;8.636;2022-09-25T04:18:37;14.10;99.90
59651;DHT22;45954;49.768;8.636;2022-09-25T04:21:08;13.90;99.90
59651;DHT22;45954;49.768;8.636;2022-09-25T04:23:36;13.80;99.90
59651;DHT22;45954;49.768;8.636;2022-09-25T04:26:03;13.70;99.90
59651;DHT22;45954;49.768;8.636;2022-09-25T04:28:29;13.70;99.90
59651;DHT22;45954;49.768;8.636;2022-09-25T04:30:59;13.70;99.90
59651;DHT22;45954;49.768;8.636;2022-09-25T04:33:25;13.60;99.90
59651;DHT22;45954;49.768;8.636;2022-09-25T04:36:09;13.60;99.90
59651;DHT22;45954;49.768;8.636;2022-09-25T04:38:35;13.70;99.90
59651;DHT22;45954;49.768;8.636;2022-09-25T04:41:02;13.60;99.90
59651;DHT22;45954;49.768;8.636;2022-09-25T04:43:29;13.70;99.90
59651;DHT22;45954;49.768;8.636;2022-09-25T04:46:03;13.70;99.90
59651;DHT22;45954;49.768;8.636;2022-09-25T04:48:31;13.80;99.90
59651;DHT22;45954;49.768;8.636;2022-09-25T04:50:59;13.90;99.90
59651;DHT22;45954;49.768;8.636;2022-09-25T04:53:26;13.80;99.90
59651;DHT22;45954;49.768;8.636;2022-09-25T04:56:03;13.70;99.90
59651;DHT22;45954;49.768;8.636;2022-09-25T04:58:33;13.80;99.90
59651;DHT22;45954;49.768;8.636;2022-09-25T05:01:06;13.90;99.90
59651;DHT22;45954;49.768;8.636;2022-09-25T05:03:33;13.80;99.90
59651;DHT22;45954;49.768;8.636;2022-09-25T05:05:59;14.00;99.90
59651;DHT22;45954;49.768;8.636;2022-09-25T05:08:26;14.00;99.90
59651;DHT22;45954;49.768;8.636;2022-09-25T05:10:52;14.10;99.90
59651;DHT22;45954;49.768;8.636;2022-09-25T05:13:18;14.10;99.90
59651;DHT22;45954;49.768;8.636;2022-09-25T05:15:44;14.00;99.90
59651;DHT22;45954;49.768;8.636;2022-09-25T05:18:21;14.00;99.90
59651;DHT22;45954;49.768;8.636;2022-09-25T05:20:49;14.00;99.90
59651;DHT22;45954;49.768;8.636;2022-09-25T05:23:15;14.10;99.90
59651;DHT22;45954;49.768;8.636;2022-09-25T05:25:42;14.20;99.90
59651;DHT22;45954;49.768;8.636;2022-09-25T05:28:09;14.20;99.90
59651;DHT22;45954;49.768;8.636;2022-09-25T05:30:37;14.30;99.90
59651;DHT22;45954;49.768;8.636;2022-09-25T05:33:03;14.30;99.90
59651;DHT22;45954;49.768;8.636;2022-09-25T05:35:31;14.20;99.90
59651;DHT22;45954;49.768;8.636;2022-09-25T05:37:58;14.30;99.90
59651;DHT22;45954;49.768;8.636;2022-09-25T05:40:24;14.30;99.90
59651;DHT22;45954;49.768;8.636;2022-09-25T05:42:50;14.30;99.90
59651;DHT22;45954;49.768;8.636;2022-09-25T05:45:18;14.20;99.90
59651;DHT22;45954;49.768;8.636;2022-09-25T05:47:45;14.20;99.90
59651;DHT22;45954;49.768;8.636;2022-09-25T05:50:14;14.30;99.90
59651;DHT22;45954;49.768;8.636;2022-09-25T05:52:41;14.20;99.90
59651;DHT22;45954;49.768;8.636;2022-09-25T05:55:08;14.10;99.90
59651;DHT22;45954;49.768;8.636;2022-09-25T05:57:36;14.00;99.90
59651;DHT22;45954;49.768;8.636;2022-09-25T06:00:05;14.10;99.90
59651;DHT22;45954;49.768;8.636;2022-09-25T06:02:33;14.00;99.90
59651;DHT22;45954;49.768;8.636;2022-09-25T06:04:59;14.10;99.90
59651;DHT22;45954;49.768;8.636;2022-09-25T06:07:25;14.00;99.90
59651;DHT22;45954;49.768;8.636;2022-09-25T06:09:51;14.00;99.90
59651;DHT22;45954;49.768;8.636;2022-09-25T06:12:17;14.00;99.90
59651;DHT22;45954;49.768;8.636;2022-09-25T06:14:43;13.90;99.90
59651;DHT22;45954;49.768;8.636;2022-09-25T06:17:11;13.80;99.90
59651;DHT22;45954;49.768;8.636;2022-09-25T06:19:37;13.80;99.90
59651;DHT22;45954;49.768;8.636;2022-09-25T06:22:02;13.80;99.90
59651;DHT22;45954;49.768;8.636;2022-09-25T06:24:28;13.80;99.90
59651;DHT22;45954;49.768;8.636;2022-09-25T06:26:54;13.80;99.90
59651;DHT22;45954;49.768;8.636;2022-09-25T06:29:20;13.80;99.90
59651;DHT22;45954;49.768;8.636;2022-09-25T06:31:46;13.90;99.90
59651;DHT22;45954;49.768;8.636;2022-09-25T06:34:11;13.90;99.90
59651;DHT22;45954;49.768;8.636;2022-09-25T06:36:37;14.00;99.90
59651;DHT22;45954;49.768;8.636;2022-09-25T06:39:04;14.00;99.90
59651;DHT22;45954;49.768;8.636;2022-09-25T06:41:30;13.90;99.90
59651;DHT22;45954;49.768;8.636;2022-09-25T06:43:56;13.90;99.90
59651;DHT22;45954;49.768;8.636;2022-09-25T06:46:22;13.90;99.90
59651;DHT22;45954;49.768;8.636;2022-09-25T06:48:52;13.90;99.90
59651;DHT22;45954;49.768;8.636;2022-09-25T06:51:19;14.00;99.90
59651;DHT22;45954;49.768;8.636;2022-09-25T06:53:46;14.00;99.90
59651;DHT22;45954;49.768;8.636;2022-09-25T06:56:12;14.00;99.90
59651;DHT22;45954;49.768;8.636;2022-09-25T06:58:38;14.20;99.90
59651;DHT22;45954;49.768;8.636;2022-09-25T07:01:04;14.10;99.90
59651;DHT22;45954;49.768;8.636;2022-09-25T07:03:35;14.10;99.90
59651;DHT22;45954;49.768;8.636;2022-09-25T07:06:13;14.10;99.90
59651;DHT22;45954;49.768;8.636;2022-09-25T07:08:44;14.20;99.90
59651;DHT22;45954;49.768;8.636;2022-09-25T07:11:21;14.20;99.90
59651;DHT22;45954;49.768;8.636;2022-09-25T07:13:48;14.20;99.90
59651;DHT22;45954;49.768;8.636;2022-09-25T07:16:24;14.30;99.90
59651;DHT22;45954;49.768;8.636;2022-09-25T07:18:53;14.30;99.90
59651;DHT22;45954;49.768;8.636;2022-09-25T07:21:22;14.30;99.90
59651;DHT22;45954;49.768;8.636;2022-09-25T07:23:51;14.20;99.90
59651;DHT22;45954;49.768;8.636;2022-09-25T07:26:21;14.20;99.90
59651;DHT22;45954;49.768;8.636;2022-09-25T07:28:59;14.20;99.90
59651;DHT22;45954;49.768;8.636;2022-09-25T07:31:29;14.20;99.90
59651;DHT22;45954;49.768;8.636;2022-09-25T07:34:00;14.20;99.90
59651;DHT22;45954;49.768;8.636;2022-09-25T07:36:34;14.20;99.90
59651;DHT22;45954;49.768;8.636;2022-09-25T07:39:01;14.20;99.90
59651;DHT22;45954;49.768;8.636;2022-09-25T07:41:27;14.20;99.90
59651;DHT22;45954;49.768;8.636;2022-09-25T07:43:55;14.20;99.90
59651;DHT22;45954;49.768;8.636;2022-09-25T07:46:22;14.00;99.90
59651;DHT22;45954;49.768;8.636;2022-09-25T07:48:51;14.00;99.90
59651;DHT22;45954;49.768;8.636;2022-09-25T07:51:18;14.10;99.90
59651;DHT22;45954;49.768;8.636;2022-09-25T07:53:44;14.10;99.90
59651;DHT22;45954;49.768;8.636;2022-09-25T07:56:10;14.10;99.90
59651;DHT22;45954;49.768;8.636;2022-09-25T07:58:37;14.10;99.90
59651;DHT22;45954;49.768;8.636;2022-09-25T08:01:06;14.10;99.90
59651;DHT22;45954;49.768;8.636;2022-09-25T08:03:34;14.10;99.90
59651;DHT22;45954;49.768;8.636;2022-09-25T08:06:09;14.20;99.90
59651;DHT22;45954;49.768;8.636;2022-09-25T08:08:39;14.10;99.90
59651;DHT22;45954;49.768;8.636;2022-09-25T08:11:12;14.20;99.90
59651;DHT22;45954;49.768;8.636;2022-09-25T08:13:40;14.10;99.90
59651;DHT22;45954;49.768;8.636;2022-09-25T08:16:14;14.20;99.90
59651;DHT22;45954;49.768;8.636;2022-09-25T08:18:45;14.30;99.90
59651;DHT22;45954;49.768;8.636;2022-09-25T08:21:14;14.50;99.90
59651;DHT22;45954;49.768;8.636;2022-09-25T08:23:48;14.50;99.90
59651;DHT22;45954;49.768;8.636;2022-09-25T08:26:17;14.40;99.90
59651;DHT22;45954;49.768;8.636;2022-09-25T08:28:45;14.50;99.90
59651;DHT22;45954;49.768;8.636;2022-09-25T08:31:11;14.40;99.90
59651;DHT22;45954;49.768;8.636;2022-09-25T08:33:42;14.40;99.90
59651;DHT22;45954;49.768;8.636;2022-09-25T08:36:09;14.40;99.90
59651;DHT22;45954;49.768;8.636;2022-09-25T08:38:35;14.50;99.90
59651;DHT22;45954;49.768;8.636;2022-09-25T08:41:06;14.50;99.90
59651;DHT22;45954;49.768;8.636;2022-09-25T08:43:50;14.50;99.90
59651;DHT22;45954;49.768;8.636;2022-09-25T08:46:35;14.40;99.90
59651;DHT22;45954;49.768;8.636;2022-09-25T08:49:39;14.40;99.90
59651;DHT22;45954;49.768;8.636;2022-09-25T08:52:15;14.50;99.90
59651;DHT22;45954;49.768;8.636;2022-09-25T08:54:43;14.50;99.90
59651;DHT22;45954;49.768;8.636;2022-09-25T08:59:58;14.50;99.90
59651;DHT22;45954;49.768;8.636;2022-09-25T09:02:44;14.40;99.90
59651;DHT22;45954;49.768;8.636;2022-09-25T09:08:01;14.50;99.90
59651;DHT22;45954;49.768;8.636;2022-09-25T09:10:40;14.50;99.90
59651;DHT22;45954;49.768;8.636;2022-09-25T09:13:29;14.50;99.90
59651;DHT22;45954;49.768;8.636;2022-09-25T09:19:23;14.50;99.90
59651;DHT22;45954;49.768;8.636;2022-09-25T09:21:55;14.50;99.90
59651;DHT22;45954;49.768;8.636;2022-09-25T09:24:31;14.50;99.90
59651;DHT22;45954;49.768;8.636;2022-09-25T09:30:20;14.50;99.90
59651;DHT22;45954;49.768;8.636;2022-09-25T09:36:42;14.40;99.90
59651;DHT22;45954;49.768;8.636;2022-09-25T09:39:26;14.40;99.90
59651;DHT22;45954;49.768;8.636;2022-09-25T09:48:08;14.50;99.90
59651;DHT22;45954;49.768;8.636;2022-09-25T09:50:52;14.50;99.90
59651;DHT22;45954;49.768;8.636;2022-09-25T09:53:38;14.70;99.90
59651;DHT22;45954;49.768;8.636;2022-09-25T09:56:18;14.60;99.90
59651;DHT22;45954;49.768;8.636;2022-09-25T10:02:04;14.60;99.90
59651;DHT22;45954;49.768;8.636;2022-09-25T10:05:00;14.60;99.90
59651;DHT22;45954;49.768;8.636;2022-09-25T10:07:34;14.50;99.90
59651;DHT22;45954;49.768;8.636;2022-09-25T10:10:01;14.70;99.90
59651;DHT22;45954;49.768;8.636;2022-09-25T10:12:36;14.70;99.90
59651;DHT22;45954;49.768;8.636;2022-09-25T10:15:32;14.60;99.90
59651;DHT22;45954;49.768;8.636;2022-09-25T10:18:03;14.60;99.90
59651;DHT22;45954;49.768;8.636;2022-09-25T10:21:00;14.40;99.90
59651;DHT22;45954;49.768;8.636;2022-09-25T10:29:24;14.60;99.90
59651;DHT22;45954;49.768;8.636;2022-09-25T10:32:02;14.60;99.90
59651;DHT22;45954;49.768;8.636;2022-09-25T10:34:29;14.70;99.90
59651;DHT22;45954;49.768;8.636;2022-09-25T10:36:56;14.80;99.90
59651;DHT22;45954;49.768;8.636;2022-09-25T10:39:32;15.00;99.90
59651;DHT22;45954;49.768;8.636;2022-09-25T10:42:00;15.20;99.90
59651;DHT22;45954;49.768;8.636;2022-09-25T10:44:37;15.20;99.90
59651;DHT22;45954;49.768;8.636;2022-09-25T10:52:50;15.50;99.90
59651;DHT22;45954;49.768;8.636;2022-09-25T10:55:19;15.50;99.90
59651;DHT22;45954;49.768;8.636;2022-09-25T10:57:47;15.80;99.90
59651;DHT22;45954;49.768;8.636;2022-09-25T11:00:22;15.60;99.90
59651;DHT22;45954;49.768;8.636;2022-09-25T11:02:57;15.60;99.90
59651;DHT22;45954;49.768;8.636;2022-09-25T11:05:28;15.60;99.90
59651;DHT22;45954;49.768;8.636;2022-09-25T11:07:59;15.50;99.90
59651;DHT22;45954;49.768;8.636;2022-09-25T11:10:32;15.60;99.90
59651;DHT22;45954;49.768;8.636;2022-09-25T11:13:08;15.70;99.90
59651;DHT22;45954;49.768;8.636;2022-09-25T11:15:50;15.60;99.90
59651;DHT22;45954;49.768;8.636;2022-09-25T11:18:40;15.50;99.90
59651;DHT22;45954;49.768;8.636;2022-09-25T11:21:32;15.20;99.90
59651;DHT22;45954;49.768;8.636;2022-09-25T11:27:45;15.60;99.90
59651;DHT22;45954;49.768;8.636;2022-09-25T11:30:19;15.60;99.90
59651;DHT22;45954;49.768;8.636;2022-09-25T11:32:56;15.70;99.90
59651;DHT22;45954;49.768;8.636;2022-09-25T11:35:42;15.60;99.90
59651;DHT22;45954;49.768;8.636;2022-09-25T11:44:17;15.50;99.90
59651;DHT22;45954;49.768;8.636;2022-09-25T11:49:32;15.60;99.90
59651;DHT22;45954;49.768;8.636;2022-09-25T11:52:12;15.70;99.90
59651;DHT22;45954;49.768;8.636;2022-09-25T12:04:07;15.50;99.90
59651;DHT22;45954;49.768;8.636;2022-09-25T12:07:16;15.40;99.90
59651;DHT22;45954;49.768;8.636;2022-09-25T12:10:12;15.40;99.90
59651;DHT22;45954;49.768;8.636;2022-09-25T12:25:13;14.80;99.90
59651;DHT22;45954;49.768;8.636;2022-09-25T12:27:59;14.80;99.90
59651;DHT22;45954;49.768;8.636;2022-09-25T12:40:04;14.80;99.90
59651;DHT22;45954;49.768;8.636;2022-09-25T12:42:57;14.60;99.90
59651;DHT22;45954;49.768;8.636;2022-09-25T12:48:37;14.60;99.90
59651;DHT22;45954;49.768;8.636;2022-09-25T12:51:39;14.70;99.90
59651;DHT22;45954;49.768;8.636;2022-09-25T12:54:29;14.80;99.90
59651;DHT22;45954;49.768;8.636;2022-09-25T13:05:38;14.80;99.90
59651;DHT22;45954;49.768;8.636;2022-09-25T13:11:28;14.90;99.90
59651;DHT22;45954;49.768;8.636;2022-09-25T13:13:58;14.80;99.90
59651;DHT22;45954;49.768;8.636;2022-09-25T13:16:26;14.80;99.90
59651;DHT22;45954;49.768;8.636;2022-09-25T13:19:25;15.00;99.90
59651;DHT22;45954;49.768;8.636;2022-09-25T13:22:20;15.00;99.90
59651;DHT22;45954;49.768;8.636;2022-09-25T13:25:11;15.20;99.90
59651;DHT22;45954;49.768;8.636;2022-09-25T13:27:44;15.30;99.90
59651;DHT22;45954;49.768;8.636;2022-09-25T13:30:26;14.90;99.90
59651;DHT22;45954;49.768;8.636;2022-09-25T13:32:58;14.90;99.90
59651;DHT22;45954;49.768;8.636;2022-09-25T13:35:31;14.70;99.90
59651;DHT22;45954;49.768;8.636;2022-09-25T13:38:15;14.80;99.90
59651;DHT22;45954;49.768;8.636;2022-09-25T13:41:09;14.90;99.90
59651;DHT22;45954;49.768;8.636;2022-09-25T13:43:36;14.80;99.90
59651;DHT22;45954;49.768;8.636;2022-09-25T13:48:49;14.90;99.90
59651;DHT22;45954;49.768;8.636;2022-09-25T13:53:58;14.60;99.90
59651;DHT22;45954;49.768;8.636;2022-09-25T14:01:49;14.30;99.90
59651;DHT22;45954;49.768;8.636;2022-09-25T14:04:29;14.30;99.90
59651;DHT22;45954;49.768;8.636;2022-09-25T14:07:26;14.20;99.90
59651;DHT22;45954;49.768;8.636;2022-09-25T14:09:57;14.00;99.90
59651;DHT22;45954;49.768;8.636;2022-09-25T14:12:44;14.10;99.90
59651;DHT22;45954;49.768;8.636;2022-09-25T14:17:47;14.20;99.90
59651;DHT22;45954;49.768;8.636;2022-09-25T14:23:21;14.20;99.90
59651;DHT22;45954;49.768;8.636;2022-09-25T14:25:58;14.20;99.90
59651;DHT22;45954;49.768;8.636;2022-09-25T14:28:46;14.40;99.90
59651;DHT22;45954;49.768;8.636;2022-09-25T14:34:05;14.30;99.90
59651;DHT22;45954;49.768;8.636;2022-09-25T14:43:20;14.40;99.90
59651;DHT22;45954;49.768;8.636;2022-09-25T14:46:13;14.50;99.90
59651;DHT22;45954;49.768;8.636;2022-09-25T14:48:54;14.50;99.90
59651;DHT22;45954;49.768;8.636;2022-09-25T14:51:40;14.50;99.90
59651;DHT22;45954;49.768;8.636;2022-09-25T14:54:14;14.60;99.90
59651;DHT22;45954;49.768;8.636;2022-09-25T14:56:45;14.60;99.90
59651;DHT22;45954;49.768;8.636;2022-09-25T14:59:25;14.90;99.90
59651;DHT22;45954;49.768;8.636;2022-09-25T15:01:58;14.80;99.90
59651;DHT22;45954;49.768;8.636;2022-09-25T15:04:32;14.70;99.90
59651;DHT22;45954;49.768;8.636;2022-09-25T15:09:38;14.90;99.90
59651;DHT22;45954;49.768;8.636;2022-09-25T15:12:47;14.90;99.90
59651;DHT22;45954;49.768;8.636;2022-09-25T15:15:13;14.80;99.90
59651;DHT22;45954;49.768;8.636;2022-09-25T15:17:55;14.80;99.90
59651;DHT22;45954;49.768;8.636;2022-09-25T15:20:30;14.80;99.90
59651;DHT22;45954;49.768;8.636;2022-09-25T15:23:04;14.70;99.90
59651;DHT22;45954;49.768;8.636;2022-09-25T15:25:42;14.50;99.90
59651;DHT22;45954;49.768;8.636;2022-09-25T15:28:16;14.30;99.90
59651;DHT22;45954;49.768;8.636;2022-09-25T15:30:50;14.20;99.90
59651;DHT22;45954;49.768;8.636;2022-09-25T15:33:29;14.10;99.90
59651;DHT22;45954;49.768;8.636;2022-09-25T15:35:58;14.10;99.90
59651;DHT22;45954;49.768;8.636;2022-09-25T15:38:31;14.00;99.90
59651;DHT22;45954;49.768;8.636;2022-09-25T15:40:59;14.20;99.90
59651;DHT22;45954;49.768;8.636;2022-09-25T15:43:26;14.20;99.90
59651;DHT22;45954;49.768;8.636;2022-09-25T15:48:48;14.40;99.90
59651;DHT22;45954;49.768;8.636;2022-09-25T15:51:22;14.50;99.90
59651;DHT22;45954;49.768;8.636;2022-09-25T15:54:15;14.30;99.90
59651;DHT22;45954;49.768;8.636;2022-09-25T15:56:55;14.40;99.90
59651;DHT22;45954;49.768;8.636;2022-09-25T15:59:32;14.40;99.90
59651;DHT22;45954;49.768;8.636;2022-09-25T16:02:17;14.60;99.90
59651;DHT22;45954;49.768;8.636;2022-09-25T16:05:09;14.70;99.90
59651;DHT22;45954;49.768;8.636;2022-09-25T16:07:37;14.60;99.90
59651;DHT22;45954;49.768;8.636;2022-09-25T16:10:09;14.60;99.90
59651;DHT22;45954;49.768;8.636;2022-09-25T16:12:54;14.40;99.90
59651;DHT22;45954;49.768;8.636;2022-09-25T16:17:52;14.30;99.90
59651;DHT22;45954;49.768;8.636;2022-09-25T16:20:36;14.40;99.90
59651;DHT22;45954;49.768;8.636;2022-09-25T16:23:15;14.50;99.90
59651;DHT22;45954;49.768;8.636;2022-09-25T16:25:48;14.60;99.90
59651;DHT22;45954;49.768;8.636;2022-09-25T16:28:18;14.70;99.90
59651;DHT22;45954;49.768;8.636;2022-09-25T16:30:57;14.70;99.90
59651;DHT22;45954;49.768;8.636;2022-09-25T16:33:31;14.80;99.90
59651;DHT22;45954;49.768;8.636;2022-09-25T16:36:09;14.60;99.90
59651;DHT22;45954;49.768;8.636;2022-09-25T16:38:42;14.60;99.90
59651;DHT22;45954;49.768;8.636;2022-09-25T16:41:27;14.50;99.90
59651;DHT22;45954;49.768;8.636;2022-09-25T16:47:30;14.30;99.90
59651;DHT22;45954;49.768;8.636;2022-09-25T16:49:39;14.50;99.90
59651;DHT22;45954;49.768;8.636;2022-09-25T16:52:06;14.50;99.90
59651;DHT22;45954;49.768;8.636;2022-09-25T16:54:36;14.50;99.90
59651;DHT22;45954;49.768;8.636;2022-09-25T16:57:02;14.50;99.90
59651;DHT22;45954;49.768;8.636;2022-09-25T16:59:29;14.40;99.90
59651;DHT22;45954;49.768;8.636;2022-09-25T17:02:02;14.20;99.90
59651;DHT22;45954;49.768;8.636;2022-09-25T17:04:33;14.30;99.90
59651;DHT22;45954;49.768;8.636;2022-09-25T17:07:00;14.40;99.90
59651;DHT22;45954;49.768;8.636;2022-09-25T17:09:28;14.40;99.90
59651;DHT22;45954;49.768;8.636;2022-09-25T17:12:05;14.30;99.90
59651;DHT22;45954;49.768;8.636;2022-09-25T17:14:35;14.10;99.90
59651;DHT22;45954;49.768;8.636;2022-09-25T17:17:01;14.10;99.90
59651;DHT22;45954;49.768;8.636;2022-09-25T17:19:27;14.20;99.90
59651;DHT22;45954;49.768;8.636;2022-09-25T17:21:53;14.30;99.90
59651;DHT22;45954;49.768;8.636;2022-09-25T17:24:24;14.40;99.90
59651;DHT22;45954;49.768;8.636;2022-09-25T17:26:51;14.50;99.90
59651;DHT22;45954;49.768;8.636;2022-09-25T17:29:18;14.50;99.90
59651;DHT22;45954;49.768;8.636;2022-09-25T17:31:45;14.60;99.90
59651;DHT22;45954;49.768;8.636;2022-09-25T17:34:19;14.60;99.90
59651;DHT22;45954;49.768;8.636;2022-09-25T17:36:50;14.70;99.90
59651;DHT22;45954;49.768;8.636;2022-09-25T17:39:16;14.80;99.90
59651;DHT22;45954;49.768;8.636;2022-09-25T17:41:42;14.70;99.90
59651;DHT22;45954;49.768;8.636;2022-09-25T17:44:12;14.70;99.90
59651;DHT22;45954;49.768;8.636;2022-09-25T17:46:41;14.70;99.90
59651;DHT22;45954;49.768;8.636;2022-09-25T17:49:07;14.60;99.90
59651;DHT22;45954;49.768;8.636;2022-09-25T17:51:34;14.60;99.90
59651;DHT22;45954;49.768;8.636;2022-09-25T17:54:00;14.60;99.90
59651;DHT22;45954;49.768;8.636;2022-09-25T17:56:27;14.50;99.90
59651;DHT22;45954;49.768;8.636;2022-09-25T17:58:58;14.20;99.90
59651;DHT22;45954;49.768;8.636;2022-09-25T18:01:28;14.10;99.90
59651;DHT22;45954;49.768;8.636;2022-09-25T18:03:57;14.30;99.90
59651;DHT22;45954;49.768;8.636;2022-09-25T18:06:27;14.50;99.90
59651;DHT22;45954;49.768;8.636;2022-09-25T18:08:54;14.60;99.90
59651;DHT22;45954;49.768;8.636;2022-09-25T18:11:22;14.50;99.90
59651;DHT22;45954;49.768;8.636;2022-09-25T18:13:53;14.40;99.90
59651;DHT22;45954;49.768;8.636;2022-09-25T18:16:27;14.30;99.90
59651;DHT22;45954;49.768;8.636;2022-09-25T18:18:55;14.30;99.90
59651;DHT22;45954;49.768;8.636;2022-09-25T18:21:59;14.30;99.90
59651;DHT22;45954;49.768;8.636;2022-09-25T18:24:48;14.40;99.90
59651;DHT22;45954;49.768;8.636;2022-09-25T18:27:23;14.40;99.90
59651;DHT22;45954;49.768;8.636;2022-09-25T18:29:50;14.30;99.90
59651;DHT22;45954;49.768;8.636;2022-09-25T18:32:16;14.30;99.90
59651;DHT22;45954;49.768;8.636;2022-09-25T18:34:42;14.10;99.90